Time;durP1;ratioP1;P1;durP2;ratioP2;P2;SDS_P1;SDS_P2;PMS_P1;PMS_P2;Temp;Humidity;BMP_temperature;BMP_pressure;BME280_temperature;BME280_humidity;BME280_pressure;Samples;Min_cycle;Max_cycle;Signal;HPM_P1;HPM_P2
2023/07/13 00:01:43;;;;;;;3.97;1.20;;;19.80;99.90;;;;;;5090222;28;20874;-61
2023/07/13 00:04:11;;;;;;;3.85;1.10;;;19.70;99.90;;;;;;5080083;28;20664;-61
2023/07/13 00:06:39;;;;;;;1.92;1.30;;;19.70;99.90;;;;;;5081326;28;20274;-62
2023/07/13 00:09:08;;;;;;;2.53;1.17;;;19.70;99.90;;;;;;5082321;28;20256;-61
2023/07/13 00:11:35;;;;;;;1.27;0.90;;;19.70;99.90;;;;;;5089155;28;20850;-61
2023/07/13 00:14:03;;;;;;;2.75;1.05;;;19.70;99.90;;;;;;5089482;28;20235;-61
2023/07/13 00:16:31;;;;;;;6.00;1.13;;;19.70;99.90;;;;;;5073546;28;20256;-61
2023/07/13 00:19:01;;;;;;;2.83;0.98;;;19.70;99.90;;;;;;5090517;28;20216;-61
2023/07/13 00:21:29;;;;;;;2.15;0.85;;;19.70;99.90;;;;;;5072707;28;20232;-61
2023/07/13 00:23:57;;;;;;;4.13;0.90;;;19.70;99.90;;;;;;5088928;28;20585;-61
2023/07/13 00:26:25;;;;;;;3.10;0.70;;;19.70;99.90;;;;;;5084549;28;20215;-62
2023/07/13 00:28:53;;;;;;;3.85;1.10;;;19.60;99.90;;;;;;5086870;28;20224;-61
2023/07/13 00:31:21;;;;;;;2.95;0.90;;;19.70;99.90;;;;;;5087383;28;20639;-61
2023/07/13 00:33:49;;;;;;;2.33;1.00;;;19.70;99.90;;;;;;5087616;28;20293;-61
2023/07/13 00:36:18;;;;;;;2.80;1.02;;;19.60;99.90;;;;;;5079041;28;20266;-61
2023/07/13 00:38:46;;;;;;;1.30;1.05;;;19.60;99.90;;;;;;5083462;28;20220;-61
2023/07/13 00:41:14;;;;;;;3.72;0.93;;;19.60;99.90;;;;;;5079168;28;20239;-61
2023/07/13 00:43:42;;;;;;;6.03;0.98;;;19.60;99.90;;;;;;5089269;28;20208;-61
2023/07/13 00:46:13;;;;;;;4.43;1.27;;;19.60;99.90;;;;;;5085493;28;20227;-62
2023/07/13 00:48:41;;;;;;;1.05;0.80;;;19.50;99.90;;;;;;5075645;28;20358;-61
2023/07/13 00:51:09;;;;;;;5.70;1.20;;;19.60;99.90;;;;;;5086425;28;20249;-61
2023/07/13 00:53:39;;;;;;;2.88;1.00;;;19.60;99.90;;;;;;5091501;28;20200;-61
2023/07/13 00:56:07;;;;;;;3.70;1.02;;;19.60;99.90;;;;;;5077102;28;20242;-61
2023/07/13 00:58:35;;;;;;;4.30;0.90;;;19.50;99.90;;;;;;5084447;28;20220;-61
2023/07/13 01:01:03;;;;;;;5.10;1.25;;;19.50;99.90;;;;;;5085251;28;20283;-61
2023/07/13 01:03:31;;;;;;;2.58;1.08;;;19.50;99.90;;;;;;5076617;28;20236;-62
2023/07/13 01:05:58;;;;;;;2.88;1.08;;;19.40;99.90;;;;;;5075785;28;20349;-61
2023/07/13 01:08:26;;;;;;;2.10;1.05;;;19.40;99.90;;;;;;5087556;28;20331;-62
2023/07/13 01:10:57;;;;;;;2.60;1.10;;;19.40;99.90;;;;;;5088915;28;20679;-61
2023/07/13 01:13:26;;;;;;;2.33;1.17;;;19.30;99.90;;;;;;5072533;28;20200;-61
2023/07/13 01:15:54;;;;;;;2.78;1.40;;;19.20;99.90;;;;;;5088905;28;20228;-61
2023/07/13 01:18:25;;;;;;;3.60;1.60;;;19.10;99.90;;;;;;5079188;28;20196;-61
2023/07/13 01:20:55;;;;;;;5.55;2.00;;;19.10;99.90;;;;;;5087249;28;20240;-61
2023/07/13 01:23:24;;;;;;;4.53;2.00;;;19.10;99.90;;;;;;5087245;28;20231;-61
2023/07/13 01:25:52;;;;;;;11.07;2.50;;;19.00;99.90;;;;;;5089613;28;20228;-61
2023/07/13 01:28:19;;;;;;;2.75;1.60;;;18.90;99.90;;;;;;5077818;28;20247;-61
2023/07/13 01:30:48;;;;;;;6.88;2.00;;;18.90;99.90;;;;;;5081900;28;20200;-61
2023/07/13 01:33:17;;;;;;;5.25;1.88;;;18.90;99.90;;;;;;5086179;28;20200;-61
2023/07/13 01:35:45;;;;;;;4.57;1.95;;;18.90;99.90;;;;;;5075220;28;20255;-61
2023/07/13 01:38:15;;;;;;;4.22;1.90;;;18.80;99.90;;;;;;5083811;28;20203;-61
2023/07/13 01:40:43;;;;;;;4.03;1.60;;;18.70;99.90;;;;;;5092240;28;20265;-62
2023/07/13 01:43:11;;;;;;;4.55;2.08;;;18.70;99.90;;;;;;5078355;28;20197;-61
2023/07/13 01:45:39;;;;;;;1.95;1.45;;;18.60;99.90;;;;;;5087921;28;20196;-61
2023/07/13 01:48:07;;;;;;;4.97;1.42;;;18.50;99.90;;;;;;5082248;28;20577;-63
2023/07/13 01:50:35;;;;;;;4.20;1.58;;;18.50;99.90;;;;;;5088877;28;20204;-62
2023/07/13 01:53:03;;;;;;;4.80;1.40;;;18.40;99.90;;;;;;5090848;28;20277;-62
2023/07/13 01:55:32;;;;;;;3.30;1.30;;;18.30;99.90;;;;;;5080634;28;20737;-62
2023/07/13 01:58:00;;;;;;;5.32;1.48;;;18.30;99.90;;;;;;5065475;28;20192;-63
2023/07/13 02:00:28;;;;;;;1.90;0.98;;;18.20;99.90;;;;;;5090166;28;20871;-63
2023/07/13 02:02:56;;;;;;;1.75;1.30;;;18.20;99.90;;;;;;5089536;28;20204;-63
2023/07/13 02:05:24;;;;;;;3.55;1.25;;;18.10;99.90;;;;;;5091084;28;20844;-63
2023/07/13 02:07:53;;;;;;;3.33;1.58;;;18.10;99.90;;;;;;5080325;28;20225;-63
2023/07/13 02:10:21;;;;;;;4.53;1.20;;;18.00;99.90;;;;;;5091505;28;20221;-62
2023/07/13 02:12:51;;;;;;;4.15;1.10;;;17.90;99.90;;;;;;5087998;28;20207;-61
2023/07/13 02:15:19;;;;;;;4.20;1.20;;;17.90;99.90;;;;;;5083157;28;20226;-63
2023/07/13 02:17:47;;;;;;;4.13;1.33;;;17.90;99.90;;;;;;5094988;28;20224;-63
2023/07/13 02:20:15;;;;;;;1.48;1.10;;;17.90;99.90;;;;;;5084436;28;20192;-63
2023/07/13 02:22:43;;;;;;;2.97;1.25;;;17.80;99.90;;;;;;5088268;28;20193;-63
2023/07/13 02:25:11;;;;;;;2.80;1.40;;;17.80;99.90;;;;;;5091266;28;20228;-63
2023/07/13 02:27:39;;;;;;;1.67;1.40;;;17.70;99.90;;;;;;5081431;28;20217;-63
2023/07/13 02:30:09;;;;;;;3.13;1.27;;;17.70;99.90;;;;;;5092004;28;20630;-63
2023/07/13 02:32:37;;;;;;;1.90;1.23;;;17.60;99.90;;;;;;5085662;28;20203;-63
2023/07/13 02:35:06;;;;;;;2.22;1.08;;;17.60;99.90;;;;;;5086008;28;20212;-63
2023/07/13 02:37:33;;;;;;;1.35;1.25;;;17.60;99.90;;;;;;5094178;28;20224;-63
2023/07/13 02:40:03;;;;;;;4.35;1.20;;;17.50;99.90;;;;;;5081949;28;20253;-63
2023/07/13 02:42:31;;;;;;;3.45;1.17;;;17.50;99.90;;;;;;5090368;28;20265;-62
2023/07/13 02:45:00;;;;;;;1.77;1.20;;;17.40;99.90;;;;;;5089502;28;20299;-62
2023/07/13 02:47:29;;;;;;;3.67;1.30;;;17.40;99.90;;;;;;5081877;28;20228;-62
2023/07/13 02:49:57;;;;;;;4.63;1.30;;;17.30;99.90;;;;;;5094490;28;20224;-63
2023/07/13 02:52:25;;;;;;;1.42;1.33;;;17.30;99.90;;;;;;5077416;28;20610;-63
2023/07/13 02:54:53;;;;;;;3.50;1.25;;;17.30;99.90;;;;;;5088600;28;20264;-63
2023/07/13 02:57:21;;;;;;;1.83;1.30;;;17.30;99.90;;;;;;5083055;28;20224;-63
2023/07/13 02:59:49;;;;;;;2.80;1.02;;;17.30;99.90;;;;;;5094016;28;20728;-63
2023/07/13 03:02:17;;;;;;;5.63;1.05;;;17.20;99.90;;;;;;5081579;28;20258;-63
2023/07/13 03:04:46;;;;;;;2.10;1.17;;;17.10;99.90;;;;;;5093289;28;20257;-63
2023/07/13 03:07:15;;;;;;;3.45;1.38;;;17.10;99.90;;;;;;5080338;28;20221;-63
2023/07/13 03:09:43;;;;;;;1.48;1.38;;;17.00;99.90;;;;;;5097962;28;20737;-62
2023/07/13 03:12:11;;;;;;;2.90;1.25;;;17.00;99.90;;;;;;5085230;28;20238;-62
2023/07/13 03:14:39;;;;;;;2.83;1.30;;;16.90;99.90;;;;;;5091619;28;20193;-63
2023/07/13 03:17:07;;;;;;;2.22;1.23;;;16.90;99.90;;;;;;5092906;28;20224;-62
2023/07/13 03:19:35;;;;;;;3.88;1.00;;;16.90;99.90;;;;;;5084014;28;20236;-63
2023/07/13 03:22:04;;;;;;;6.10;1.40;;;16.90;99.90;;;;;;5096468;28;20283;-62
2023/07/13 03:24:33;;;;;;;1.77;1.25;;;16.90;99.90;;;;;;5088557;28;20347;-62
2023/07/13 03:27:05;;;;;;;2.10;1.17;;;16.90;99.90;;;;;;5087972;28;20231;-63
2023/07/13 03:29:33;;;;;;;3.53;1.30;;;16.80;99.90;;;;;;5097454;28;20223;-62
2023/07/13 03:32:01;;;;;;;2.75;1.50;;;16.80;99.90;;;;;;5083835;28;20231;-63
2023/07/13 03:34:29;;;;;;;2.03;1.45;;;16.80;99.90;;;;;;5092761;28;20258;-63
2023/07/13 03:36:57;;;;;;;1.85;1.48;;;16.80;99.90;;;;;;5090836;28;20270;-63
2023/07/13 03:39:26;;;;;;;1.27;1.13;;;16.70;99.90;;;;;;5084277;28;20229;-63
2023/07/13 03:41:54;;;;;;;2.70;1.30;;;16.70;99.90;;;;;;5096689;28;20197;-63
2023/07/13 03:44:22;;;;;;;2.05;1.23;;;16.70;99.90;;;;;;5087209;28;20223;-63
2023/07/13 03:46:50;;;;;;;2.50;1.50;;;16.70;99.90;;;;;;5088927;28;20666;-62
2023/07/13 03:49:18;;;;;;;4.63;1.48;;;16.60;99.90;;;;;;5094682;28;20254;-61
2023/07/13 03:51:46;;;;;;;1.40;1.33;;;16.60;99.90;;;;;;5080563;28;20204;-61
2023/07/13 03:54:14;;;;;;;1.58;1.10;;;16.60;99.90;;;;;;5098532;28;20201;-63
2023/07/13 03:56:43;;;;;;;3.90;1.50;;;16.60;99.90;;;;;;5082740;28;20220;-62
2023/07/13 03:59:11;;;;;;;4.32;1.30;;;16.60;99.90;;;;;;5093816;28;20200;-62
2023/07/13 04:01:39;;;;;;;5.90;1.58;;;16.60;99.90;;;;;;5083909;28;20227;-62
2023/07/13 04:04:07;;;;;;;1.75;1.20;;;16.60;99.90;;;;;;5092231;28;20196;-62
2023/07/13 04:06:35;;;;;;;1.40;1.10;;;16.60;99.90;;;;;;5100057;28;20223;-62
2023/07/13 04:09:05;;;;;;;3.10;1.83;;;16.60;99.90;;;;;;5098057;28;20200;-62
2023/07/13 04:11:33;;;;;;;1.55;1.45;;;16.60;99.90;;;;;;5083589;28;20197;-61
2023/07/13 04:14:03;;;;;;;5.72;1.30;;;16.60;99.90;;;;;;5095819;28;20683;-63
2023/07/13 04:16:30;;;;;;;2.13;1.33;;;16.60;99.90;;;;;;5087411;28;20220;-63
2023/07/13 04:18:59;;;;;;;2.00;1.25;;;16.60;99.90;;;;;;5087031;28;20264;-63
2023/07/13 04:21:29;;;;;;;5.32;1.30;;;16.50;99.90;;;;;;5094874;28;20736;-62
2023/07/13 04:23:57;;;;;;;5.53;2.08;;;16.50;99.90;;;;;;5090364;28;20208;-62
2023/07/13 04:26:25;;;;;;;3.85;1.50;;;16.50;99.90;;;;;;5084144;28;20212;-63
2023/07/13 04:28:53;;;;;;;3.70;1.52;;;16.60;99.90;;;;;;5087869;28;20200;-63
2023/07/13 04:31:22;;;;;;;3.80;1.25;;;16.60;99.90;;;;;;5087284;28;20726;-58
2023/07/13 04:33:50;;;;;;;1.77;1.13;;;16.60;99.90;;;;;;5081007;28;20550;-58
2023/07/13 04:36:18;;;;;;;4.00;1.77;;;16.80;99.90;;;;;;5093630;28;20642;-58
2023/07/13 04:38:46;;;;;;;4.22;1.20;;;17.30;99.90;;;;;;5078479;28;20660;-58
2023/07/13 04:41:14;;;;;;;1.77;1.20;;;17.50;99.90;;;;;;5089913;28;20277;-58
2023/07/13 04:43:42;;;;;;;3.33;1.40;;;17.70;99.90;;;;;;5079671;28;20300;-58
2023/07/13 04:46:12;;;;;;;3.88;1.30;;;17.80;99.90;;;;;;5090756;28;20287;-58
2023/07/13 04:48:42;;;;;;;1.63;1.20;;;17.80;99.90;;;;;;5085438;28;20196;-58
2023/07/13 04:51:10;;;;;;;3.08;1.52;;;17.90;99.90;;;;;;5081945;28;20229;-59
2023/07/13 04:53:38;;;;;;;2.20;1.45;;;18.00;99.90;;;;;;5076483;28;20270;-58
2023/07/13 04:56:06;;;;;;;8.57;1.40;;;18.10;99.90;;;;;;5090357;28;20224;-58
2023/07/13 04:58:34;;;;;;;2.97;1.33;;;18.20;99.90;;;;;;5083645;28;20206;-58
2023/07/13 05:01:02;;;;;;;2.40;1.33;;;18.30;99.90;;;;;;5082060;28;20264;-58
2023/07/13 05:03:30;;;;;;;4.75;1.08;;;18.40;99.90;;;;;;5090885;28;20204;-57
2023/07/13 05:06:01;;;;;;;3.33;1.40;;;18.50;99.90;;;;;;5061265;28;20223;-58
2023/07/13 05:08:28;;;;;;;3.88;1.08;;;18.60;99.90;;;;;;5086875;28;20247;-58
2023/07/13 05:10:56;;;;;;;5.65;1.30;;;18.60;99.90;;;;;;5084899;28;20629;-58
2023/07/13 05:13:24;;;;;;;2.70;1.30;;;18.60;99.90;;;;;;5086199;28;20224;-59
2023/07/13 05:15:57;;;;;;;1.50;1.02;;;18.70;99.90;;;;;;5085396;28;20224;-56
2023/07/13 05:18:25;;;;;;;1.08;1.00;;;18.60;99.90;;;;;;5092241;28;20683;-58
2023/07/13 05:21:00;;;;;;;3.97;1.33;;;18.60;99.90;;;;;;5084756;28;20263;-57
2023/07/13 05:23:28;;;;;;;1.95;1.00;;;18.60;99.90;;;;;;5085564;28;20272;-58
2023/07/13 05:25:56;;;;;;;2.47;1.00;;;18.70;99.90;;;;;;5083837;28;20212;-59
2023/07/13 05:28:24;;;;;;;1.13;0.90;;;18.70;99.90;;;;;;5082010;28;20192;-58
2023/07/13 05:30:53;;;;;;;2.50;1.05;;;18.80;99.90;;;;;;5084391;28;20196;-59
2023/07/13 05:33:21;;;;;;;2.58;0.93;;;18.90;99.90;;;;;;5090393;28;20204;-58
2023/07/13 05:35:49;;;;;;;2.92;1.25;;;18.90;99.90;;;;;;5078742;28;20256;-58
2023/07/13 05:38:18;;;;;;;4.88;1.23;;;18.90;99.90;;;;;;5088792;28;20205;-58
2023/07/13 05:40:46;;;;;;;6.90;0.90;;;19.00;99.90;;;;;;5085136;28;20220;-59
2023/07/13 05:43:14;;;;;;;2.40;1.05;;;19.00;99.90;;;;;;5081180;28;20239;-58
2023/07/13 05:45:42;;;;;;;2.35;0.90;;;19.00;99.90;;;;;;5066468;28;20275;-60
2023/07/13 05:48:10;;;;;;;3.80;0.85;;;18.90;99.90;;;;;;5089501;28;20620;-58
2023/07/13 05:50:38;;;;;;;5.03;1.20;;;18.90;99.90;;;;;;5084151;28;20223;-60
2023/07/13 05:53:06;;;;;;;6.55;1.25;;;18.90;99.90;;;;;;5072387;28;20265;-60
2023/07/13 05:55:35;;;;;;;2.35;0.70;;;19.00;99.90;;;;;;5087963;28;20203;-58
2023/07/13 05:58:03;;;;;;;4.50;0.98;;;19.00;99.90;;;;;;5076644;28;20628;-60
2023/07/13 06:00:31;;;;;;;4.82;0.88;;;19.10;99.90;;;;;;5084486;28;20197;-59
2023/07/13 06:02:59;;;;;;;2.13;0.82;;;19.30;99.90;;;;;;5084171;28;20224;-60
2023/07/13 06:05:28;;;;;;;4.40;1.50;;;19.40;99.90;;;;;;5076154;28;20258;-59
2023/07/13 06:07:56;;;;;;;5.47;1.10;;;19.50;99.90;;;;;;5075344;28;20204;-60
2023/07/13 06:10:24;;;;;;;4.03;1.05;;;19.50;99.90;;;;;;5084231;28;20193;-59
2023/07/13 06:12:53;;;;;;;3.10;0.70;;;19.50;99.90;;;;;;5082976;28;20200;-59
2023/07/13 06:15:21;;;;;;;7.70;1.23;;;19.60;99.90;;;;;;5075270;28;20276;-59
2023/07/13 06:17:49;;;;;;;7.38;1.05;;;19.60;99.90;;;;;;5089194;28;20273;-59
2023/07/13 06:20:17;;;;;;;2.22;0.93;;;19.70;99.90;;;;;;5078430;28;20200;-59
2023/07/13 06:22:45;;;;;;;5.82;1.00;;;19.80;99.90;;;;;;5082482;28;20213;-59
2023/07/13 06:25:13;;;;;;;4.97;0.80;;;19.90;99.90;;;;;;5085361;28;20200;-58
2023/07/13 06:27:41;;;;;;;3.70;0.95;;;20.00;99.90;;;;;;5074782;28;20274;-57
2023/07/13 06:30:12;;;;;;;2.30;0.70;;;19.90;99.90;;;;;;5085752;28;20711;-58
2023/07/13 06:32:40;;;;;;;7.38;0.88;;;19.90;99.90;;;;;;5080585;28;20224;-58
2023/07/13 06:35:12;;;;;;;4.57;1.08;;;19.90;99.90;;;;;;5078136;28;20629;-58
2023/07/13 06:37:40;;;;;;;2.92;0.60;;;19.90;99.90;;;;;;5088190;28;20254;-58
2023/07/13 06:40:09;;;;;;;3.42;0.73;;;19.90;99.90;;;;;;5075780;28;20617;-58
2023/07/13 06:42:38;;;;;;;3.63;0.88;;;20.00;99.90;;;;;;5081897;28;20286;-57
2023/07/13 06:45:07;;;;;;;3.22;0.80;;;20.00;99.90;;;;;;5084260;28;20204;-58
2023/07/13 06:47:36;;;;;;;4.43;0.70;;;20.10;99.90;;;;;;5074599;28;20232;-58
2023/07/13 06:50:04;;;;;;;1.90;0.57;;;20.10;99.90;;;;;;5087335;28;20865;-58
2023/07/13 06:52:32;;;;;;;3.38;0.70;;;20.20;99.90;;;;;;5071473;28;20205;-57
2023/07/13 06:55:00;;;;;;;1.65;0.60;;;20.20;99.90;;;;;;5083152;28;20196;-58
2023/07/13 06:57:28;;;;;;;1.60;0.70;;;20.30;99.90;;;;;;5075381;28;20297;-58
2023/07/13 06:59:57;;;;;;;4.82;0.93;;;20.40;99.90;;;;;;5086597;28;20204;-57
2023/07/13 07:02:25;;;;;;;2.33;0.73;;;20.40;99.90;;;;;;5078144;28;20273;-59
2023/07/13 07:04:55;;;;;;;3.58;0.90;;;20.40;99.90;;;;;;5080760;28;20209;-60
2023/07/13 07:07:24;;;;;;;5.97;0.75;;;20.50;99.90;;;;;;5087470;28;20220;-59
2023/07/13 07:09:52;;;;;;;2.95;0.70;;;20.50;99.90;;;;;;5075881;28;20668;-59
2023/07/13 07:12:20;;;;;;;4.22;0.65;;;20.50;99.90;;;;;;5085771;28;20215;-58
2023/07/13 07:14:48;;;;;;;1.63;0.80;;;20.60;99.90;;;;;;5082091;28;20636;-59
2023/07/13 07:17:16;;;;;;;2.35;0.98;;;20.70;99.90;;;;;;5077902;28;20221;-58
2023/07/13 07:19:44;;;;;;;1.30;0.60;;;20.80;99.90;;;;;;5088003;28;20200;-59
2023/07/13 07:22:13;;;;;;;3.50;0.75;;;20.90;99.90;;;;;;5075226;28;20252;-58
2023/07/13 07:24:41;;;;;;;7.40;0.95;;;20.90;99.90;;;;;;5091307;28;20208;-58
2023/07/13 07:27:09;;;;;;;0.85;0.75;;;21.00;99.90;;;;;;5078327;28;20229;-59
2023/07/13 07:29:40;;;;;;;4.70;1.00;;;21.00;99.90;;;;;;5088715;28;20236;-59
2023/07/13 07:32:14;;;;;;;3.28;0.70;;;21.10;99.90;;;;;;5076230;28;20197;-59
2023/07/13 07:34:45;;;;;;;0.70;0.60;;;21.10;99.90;;;;;;5079847;28;20227;-58
2023/07/13 07:37:14;;;;;;;2.97;0.80;;;21.20;99.90;;;;;;5083277;28;20792;-58
2023/07/13 07:39:45;;;;;;;2.47;0.98;;;21.20;99.90;;;;;;5072987;28;20240;-59
2023/07/13 07:42:33;;;;;;;5.00;0.85;;;21.30;99.90;;;;;;5081149;28;20231;-59
2023/07/13 07:45:01;;;;;;;2.50;0.80;;;21.30;99.90;;;;;;5072877;28;20204;-57
2023/07/13 07:47:29;;;;;;;4.07;0.70;;;21.40;99.90;;;;;;5087354;22;20234;-72
2023/07/13 07:49:57;;;;;;;2.05;0.85;;;21.40;99.90;;;;;;5063804;28;20304;-72
2023/07/13 07:52:27;;;;;;;6.78;0.80;;;21.50;99.90;;;;;;5054398;28;20242;-71
2023/07/13 07:54:55;;;;;;;3.58;0.82;;;21.60;99.90;;;;;;5058031;28;20209;-71
2023/07/13 07:57:43;;;;;;;2.92;0.70;;;21.70;99.90;;;;;;5067215;28;20749;-72
2023/07/13 08:00:15;;;;;;;2.55;0.77;;;21.80;99.90;;;;;;5055958;28;20256;-72
2023/07/13 08:02:46;;;;;;;5.32;0.85;;;21.80;99.90;;;;;;5060017;28;20758;-71
2023/07/13 08:05:17;;;;;;;3.47;0.90;;;21.80;99.90;;;;;;5063927;28;20724;-72
2023/07/13 08:07:49;;;;;;;1.13;0.85;;;21.90;99.90;;;;;;5054145;28;20206;-72
2023/07/13 08:10:17;;;;;;;7.78;1.10;;;22.00;99.90;;;;;;5065063;28;20221;-72
2023/07/13 08:12:45;;;;;;;2.75;0.85;;;22.10;99.90;;;;;;5060649;28;20201;-72
2023/07/13 08:15:32;;;;;;;2.58;0.77;;;22.20;99.90;;;;;;5053287;28;20213;-72
2023/07/13 08:18:00;;;;;;;1.27;0.70;;;22.30;99.90;;;;;;5038247;28;20246;-72
2023/07/13 08:20:28;;;;;;;1.63;0.60;;;22.40;99.90;;;;;;5064564;28;20683;-72
2023/07/13 08:22:57;;;;;;;2.35;0.75;;;22.50;99.90;;;;;;5055459;28;21185;-72
2023/07/13 08:25:26;;;;;;;4.07;1.08;;;22.60;99.90;;;;;;5061663;28;20682;-72
2023/07/13 08:27:53;;;;;;;3.30;1.00;;;22.70;99.90;;;;;;5066781;28;20251;-72
2023/07/13 08:30:21;;;;;;;1.67;0.73;;;22.80;99.90;;;;;;5057339;28;20303;-71
2023/07/13 08:32:49;;;;;;;4.40;0.88;;;22.90;99.90;;;;;;5059333;28;20664;-72
2023/07/13 08:35:17;;;;;;;3.33;0.85;;;22.90;99.90;;;;;;5063640;28;20716;-72
2023/07/13 08:37:45;;;;;;;2.30;0.80;;;23.00;99.90;;;;;;5053286;28;20583;-76
2023/07/13 08:40:14;;;;;;;0.60;0.60;;;22.90;99.90;;;;;;5064711;28;20300;-73
2023/07/13 08:42:46;;;;;;;5.93;1.00;;;22.90;99.90;;;;;;5059584;28;20738;-72
2023/07/13 08:45:18;;;;;;;3.35;0.50;;;23.00;99.90;;;;;;5055298;28;20238;-73
2023/07/13 08:47:48;;;;;;;4.57;0.70;;;23.10;99.90;;;;;;5066100;28;20208;-73
2023/07/13 08:50:18;;;;;;;3.67;0.55;;;23.10;99.90;;;;;;5056689;28;20220;-73
2023/07/13 08:52:47;;;;;;;1.98;0.60;;;23.00;99.90;;;;;;5070406;28;20213;-73
2023/07/13 08:55:17;;;;;;;5.75;0.80;;;22.90;99.90;;;;;;5055649;28;20259;-74
2023/07/13 08:57:47;;;;;;;2.53;0.80;;;23.00;99.90;;;;;;5066413;28;20280;-73
2023/07/13 09:00:16;;;;;;;1.40;0.73;;;23.10;99.90;;;;;;5056066;28;20307;-73
2023/07/13 09:02:47;;;;;;;4.50;0.60;;;23.20;99.90;;;;;;5060597;28;20213;-73
2023/07/13 09:05:16;;;;;;;3.33;0.70;;;23.30;99.90;;;;;;5062712;28;20251;-73
2023/07/13 09:07:56;;;;;;;3.90;0.70;;;23.40;99.90;;;;;;5053877;28;20213;-73
2023/07/13 09:10:28;;;;;;;2.42;0.80;;;23.50;99.90;;;;;;5062489;28;20291;-73
2023/07/13 09:13:04;;;;;;;1.42;0.60;;;23.70;99.90;;;;;;5060916;28;20197;-73
2023/07/13 09:15:32;;;;;;;3.33;0.60;;;23.80;99.90;;;;;;5052877;28;20661;-73
2023/07/13 09:18:03;;;;;;;3.88;0.82;;;24.00;99.90;;;;;;5037581;28;20236;-73
2023/07/13 09:20:32;;;;;;;2.72;0.70;;;24.10;99.90;;;;;;5062100;28;20284;-73
2023/07/13 09:23:01;;;;;;;1.25;0.50;;;24.20;99.90;;;;;;5061354;28;20224;-73
2023/07/13 09:25:32;;;;;;;1.45;0.68;;;24.20;99.90;;;;;;5052838;28;20608;-73
2023/07/13 09:28:03;;;;;;;1.30;0.70;;;24.30;99.90;;;;;;5037209;28;20365;-73
2023/07/13 09:30:34;;;;;;;1.90;0.65;;;24.40;99.90;;;;;;5061278;28;20233;-73
2023/07/13 09:33:02;;;;;;;3.35;0.88;;;24.50;99.90;;;;;;5060700;28;20280;-73
2023/07/13 09:35:30;;;;;;;1.38;0.45;;;24.70;99.50;;;;;;5052104;28;20211;-73
2023/07/13 09:37:59;;;;;;;0.93;0.55;;;24.90;99.80;;;;;;5036016;28;20193;-73
2023/07/13 09:40:36;;;;;;;3.50;0.68;;;24.90;98.00;;;;;;5061540;28;20271;-74
2023/07/13 09:43:04;;;;;;;3.38;0.52;;;25.00;98.40;;;;;;5061351;28;20228;-73
2023/07/13 09:45:34;;;;;;;4.18;0.70;;;25.10;98.50;;;;;;5051708;28;20678;-74
2023/07/13 09:48:05;;;;;;;3.25;0.88;;;25.30;99.10;;;;;;5037299;28;20678;-73
2023/07/13 09:50:33;;;;;;;3.00;0.73;;;25.50;98.20;;;;;;5061089;28;20280;-73
2023/07/13 09:53:01;;;;;;;2.72;0.50;;;25.60;97.20;;;;;;5061477;28;20224;-73
2023/07/13 09:55:34;;;;;;;1.48;0.68;;;25.50;96.40;;;;;;5052631;28;20213;-73
2023/07/13 09:58:06;;;;;;;1.05;0.60;;;25.50;95.90;;;;;;5037139;28;20255;-73
2023/07/13 10:00:33;;;;;;;3.50;0.75;;;25.50;95.20;;;;;;5060947;28;20229;-73
2023/07/13 10:03:04;;;;;;;1.08;0.77;;;25.50;95.20;;;;;;5061155;28;20213;-73
2023/07/13 10:05:39;;;;;;;3.17;0.85;;;25.60;95.60;;;;;;5051795;28;20205;-73
2023/07/13 10:08:18;;;;;;;0.88;0.52;;;25.80;94.80;;;;;;5041687;28;20242;-74
2023/07/13 10:10:47;;;;;;;0.90;0.60;;;25.90;94.30;;;;;;5064912;28;20654;-73
2023/07/13 10:13:26;;;;;;;3.35;0.70;;;25.80;93.80;;;;;;5057117;28;20732;-73
2023/07/13 10:15:53;;;;;;;0.60;0.60;;;25.80;94.30;;;;;;5064693;28;20251;-73
2023/07/13 10:18:21;;;;;;;0.55;0.50;;;25.80;93.50;;;;;;5060637;28;20228;-74
2023/07/13 10:20:51;;;;;;;2.75;0.80;;;25.80;93.70;;;;;;5061420;28;20208;-74
2023/07/13 10:23:32;;;;;;;0.85;0.70;;;26.00;93.80;;;;;;5068586;28;20274;-73
2023/07/13 10:26:03;;;;;;;2.58;0.80;;;26.10;93.20;;;;;;5036023;28;20191;-74
2023/07/13 10:28:32;;;;;;;0.98;0.70;;;26.10;92.50;;;;;;5060298;28;20244;-73
2023/07/13 10:31:01;;;;;;;6.45;0.90;;;26.20;92.70;;;;;;5060836;28;20232;-74
2023/07/13 10:33:29;;;;;;;2.08;0.50;;;26.40;92.90;;;;;;5052920;28;20219;-73
2023/07/13 10:36:01;;;;;;;0.80;0.77;;;26.70;92.40;;;;;;5064623;28;20228;-73
2023/07/13 10:38:29;;;;;;;0.75;0.70;;;26.60;91.70;;;;;;5056596;28;20402;-74
2023/07/13 10:40:58;;;;;;;1.30;0.65;;;26.60;91.90;;;;;;5056951;28;20225;-73
2023/07/13 10:43:30;;;;;;;0.68;0.68;;;26.90;91.50;;;;;;5053106;28;20252;-74
2023/07/13 10:45:58;;;;;;;1.23;0.60;;;27.40;90.40;;;;;;5059630;28;20511;-74
2023/07/13 10:48:26;;;;;;;2.60;0.73;;;27.60;90.60;;;;;;5055939;28;20286;-73
2023/07/13 10:50:54;;;;;;;0.80;0.80;;;27.70;88.80;;;;;;5058852;28;20209;-74
2023/07/13 10:53:23;;;;;;;0.68;0.47;;;27.60;88.60;;;;;;5060962;28;20233;-73
2023/07/13 10:56:02;;;;;;;2.80;0.70;;;27.80;88.40;;;;;;5058422;28;20201;-74
2023/07/13 10:58:33;;;;;;;2.53;0.80;;;27.80;87.20;;;;;;5061724;28;20262;-74
2023/07/13 11:01:08;;;;;;;1.10;0.60;;;27.50;88.40;;;;;;5064429;28;20229;-73
2023/07/13 11:03:38;;;;;;;2.15;0.65;;;27.60;88.40;;;;;;5064781;28;20693;-74
2023/07/13 11:06:09;;;;;;;2.58;0.70;;;28.00;87.40;;;;;;5052064;28;20196;-74
2023/07/13 11:08:38;;;;;;;3.42;0.63;;;28.60;87.10;;;;;;5058128;28;20216;-74
2023/07/13 11:11:34;;;;;;;2.70;0.80;;;28.90;85.60;;;;;;5061262;28;20212;-74
2023/07/13 11:14:07;;;;;;;1.38;0.82;;;28.40;83.00;;;;;;5052861;28;20186;-74
2023/07/13 11:16:37;;;;;;;3.80;0.93;;;27.80;83.80;;;;;;5063318;28;20742;-73
2023/07/13 11:19:26;;;;;;;3.17;0.80;;;27.20;85.40;;;;;;5053102;28;20258;-74
2023/07/13 11:22:04;;;;;;;2.50;0.75;;;26.90;87.70;;;;;;5051214;28;20193;-74
2023/07/13 11:24:49;;;;;;;1.27;0.60;;;26.60;89.20;;;;;;5059184;28;20275;-73
2023/07/13 11:27:23;;;;;;;0.60;0.60;;;27.10;88.70;;;;;;5063962;28;20200;-74
2023/07/13 11:29:52;;;;;;;1.08;0.80;;;27.80;86.70;;;;;;5055180;28;20671;-74
2023/07/13 11:32:26;;;;;;;3.67;0.70;;;28.30;84.80;;;;;;5066527;28;20624;-74
2023/07/13 11:34:54;;;;;;;4.60;0.80;;;28.50;84.70;;;;;;5070966;28;20193;-74
2023/07/13 11:37:22;;;;;;;0.93;0.93;;;28.60;85.30;;;;;;5056340;28;20202;-73
2023/07/13 11:39:51;;;;;;;1.92;0.90;;;28.40;83.90;;;;;;5068146;28;20263;-74
2023/07/13 11:42:19;;;;;;;2.90;1.00;;;28.10;83.10;;;;;;5057859;28;20670;-73
2023/07/13 11:44:48;;;;;;;8.55;0.95;;;28.00;83.80;;;;;;5060205;28;20205;-74
2023/07/13 11:47:40;;;;;;;1.35;0.80;;;28.30;86.10;;;;;;5068099;28;20240;-73
2023/07/13 11:50:18;;;;;;;4.00;1.00;;;28.80;82.10;;;;;;5056426;28;20228;-74
2023/07/13 11:52:46;;;;;;;3.40;0.73;;;29.30;80.20;;;;;;5071386;28;20232;-74
2023/07/13 11:55:15;;;;;;;2.97;0.70;;;29.70;79.60;;;;;;5056864;28;20271;-74
2023/07/13 11:57:45;;;;;;;1.58;0.90;;;29.50;79.10;;;;;;5068144;28;20200;-74
2023/07/13 12:00:16;;;;;;;1.83;0.88;;;29.00;78.40;;;;;;5057266;28;20260;-74
2023/07/13 12:02:46;;;;;;;2.50;0.88;;;29.00;80.10;;;;;;5061282;28;20721;-74
2023/07/13 12:05:15;;;;;;;3.63;1.20;;;29.50;78.80;;;;;;5064639;28;20263;-74
2023/07/13 12:07:43;;;;;;;2.42;0.85;;;29.80;79.00;;;;;;5054735;28;20297;-74
2023/07/13 12:10:18;;;;;;;2.60;1.00;;;30.00;76.20;;;;;;5065636;28;20217;-73
2023/07/13 12:12:48;;;;;;;1.02;0.63;;;29.80;74.40;;;;;;5060687;28;20215;-74
2023/07/13 12:15:15;;;;;;;1.25;0.80;;;29.50;74.60;;;;;;5056312;28;20232;-74
2023/07/13 12:17:45;;;;;;;2.78;0.75;;;29.30;75.20;;;;;;5067674;28;20250;-73
2023/07/13 12:20:20;;;;;;;2.45;0.80;;;29.50;76.30;;;;;;5056117;28;20667;-74
2023/07/13 12:22:48;;;;;;;1.75;0.73;;;29.50;76.10;;;;;;5060465;28;20243;-74
2023/07/13 12:25:17;;;;;;;4.03;0.90;;;29.10;76.00;;;;;;5063237;28;20660;-74
2023/07/13 12:27:48;;;;;;;4.57;0.82;;;29.00;75.90;;;;;;5054207;28;20202;-74
2023/07/13 12:30:28;;;;;;;0.90;0.90;;;29.00;75.40;;;;;;5064804;28;20221;-74
2023/07/13 12:33:02;;;;;;;1.10;0.60;;;29.60;76.70;;;;;;5062456;28;20214;-74
2023/07/13 12:35:32;;;;;;;3.63;0.90;;;29.90;74.60;;;;;;5053541;28;20647;-73
2023/07/13 12:38:00;;;;;;;1.40;0.80;;;30.00;73.60;;;;;;5038401;28;20232;-73
2023/07/13 12:40:32;;;;;;;0.88;0.73;;;29.90;74.50;;;;;;5062303;28;20271;-73
2023/07/13 12:43:04;;;;;;;2.95;0.88;;;29.40;74.80;;;;;;5063147;28;20208;-74
2023/07/13 12:45:32;;;;;;;2.53;0.80;;;28.80;75.20;;;;;;5053227;28;20699;-74
2023/07/13 12:48:05;;;;;;;2.70;0.90;;;28.40;77.60;;;;;;5037473;28;20236;-74
2023/07/13 12:50:37;;;;;;;2.75;0.80;;;28.00;77.20;;;;;;5062342;28;20185;-74
2023/07/13 12:53:07;;;;;;;0.85;0.85;;;27.60;77.40;;;;;;5063232;28;20296;-73
2023/07/13 12:55:42;;;;;;;4.20;1.10;;;27.40;78.10;;;;;;5052850;28;20266;-74
2023/07/13 12:58:14;;;;;;;2.78;0.90;;;27.10;78.00;;;;;;5062527;28;20197;-74
2023/07/13 13:00:42;;;;;;;2.22;1.00;;;26.90;79.20;;;;;;5049562;28;20240;-73